Harbor Beach, Michigan
Current Conditions -  °F | °C
As of 4:56 PM on Friday 28 Nov 2014 (Local Time) from KBAX Reporting Station
Light Snow Light Snow  
Wind Chill: -9°   Ceiling: 4600
Heat Index: -4°   Visibility: 7mi
Dew Point: -8°   Wind: 8mph
Humidity: 74%   Direction: 190°S
Pressure: 30.17"   Gusts: NA
Location:  43.84°N, 82.65°W
Report Text: KBAX 282156Z AUTO 19007KT 7SM -SN SCT037 BKN046 OVC060 M04/M08 A3017 RMK AO2 T10441084
Loading
Personal Weather Stations






























Interactive Weather Map New forecast layout! Learn more

10-Day Weather Forecast

Advertisements
Track Severe Weather on mobile